Terminal Aerodrome Forecast
Issued by NWS

Home | Current Version | Previous Version | Text Only | Print | Product List | Glossary On
Versions: 1 2 3 4 5 6 7 8 9 10 11 12
000
FTUS45 KPSR 302324
TAFBLH
TAF
KBLH 302324Z 3100/3124 18010KT P6SM SKC
     FM310800 VRB04KT P6SM FEW250
     FM312100 19015KT P6SM FEW120 FEW250=

USA.gov is the U.S. government's official web portal to all federal, state and local government web resources and services.